createdAt,value
2023-03-21T00:01:33.972Z,9.97
2023-03-21T00:04:52.285Z,10.20
2023-03-21T00:07:45.995Z,8.90
2023-03-21T00:11:11.936Z,9.43
2023-03-21T00:14:31.936Z,10.75
2023-03-21T00:17:49.011Z,9.37
2023-03-21T00:20:49.008Z,9.30
2023-03-21T00:24:00.995Z,9.03
2023-03-21T00:30:26.947Z,10.25
2023-03-21T00:33:28.022Z,8.25
2023-03-21T00:36:51.964Z,9.30
2023-03-21T00:39:52.087Z,8.70
2023-03-21T00:43:17.997Z,9.97
2023-03-21T00:46:19.686Z,8.97
2023-03-21T00:49:44.049Z,9.25
2023-03-21T00:52:45.323Z,9.75
2023-03-21T00:55:59.040Z,9.53
2023-03-21T00:59:25.087Z,9.73
2023-03-21T01:02:37.068Z,8.70
2023-03-21T01:06:17.061Z,10.37
2023-03-21T01:09:42.053Z,9.03
2023-03-21T01:12:42.115Z,10.20
2023-03-21T01:19:00.150Z,10.47
2023-03-21T01:22:24.109Z,11.00
2023-03-21T01:25:24.200Z,9.70
2023-03-21T01:28:48.195Z,10.30
2023-03-21T01:32:00.212Z,10.83
2023-03-21T01:35:27.011Z,10.60
2023-03-21T01:38:50.256Z,10.93
2023-03-21T01:42:02.232Z,9.80
2023-03-21T01:45:27.221Z,9.43
2023-03-21T01:48:51.228Z,10.05
2023-03-21T01:52:29.822Z,12.07
2023-03-21T01:55:42.289Z,10.33
2023-03-21T01:59:09.290Z,9.87
2023-03-21T02:02:34.254Z,10.27
2023-03-21T02:06:00.300Z,10.50
2023-03-21T02:09:26.308Z,10.70
2023-03-21T02:12:51.327Z,10.37
2023-03-21T02:16:19.373Z,9.43
2023-03-21T02:19:53.906Z,9.80
2023-03-21T02:23:25.412Z,9.63
2023-03-21T02:27:03.914Z,10.20
2023-03-21T02:30:51.305Z,9.95
2023-03-21T02:34:13.320Z,9.50
2023-03-21T02:37:42.910Z,8.30
2023-03-21T02:41:03.435Z,8.53
2023-03-21T02:44:14.473Z,9.17
2023-03-21T02:47:38.428Z,8.67
2023-03-21T02:50:50.416Z,9.07
2023-03-21T02:54:30.354Z,8.80
2023-03-21T02:57:43.388Z,8.43
2023-03-21T03:01:05.506Z,8.43
2023-03-21T03:04:18.583Z,7.93
2023-03-21T03:07:46.507Z,8.40
2023-03-21T03:11:10.545Z,9.03
2023-03-21T03:17:42.506Z,8.10
2023-03-21T03:21:10.611Z,8.70
2023-03-21T03:24:22.456Z,8.90
2023-03-21T03:27:49.493Z,8.60
2023-03-21T03:31:15.062Z,7.85
2023-03-21T03:34:39.538Z,8.65
2023-03-21T03:38:03.556Z,10.27
2023-03-21T03:41:34.953Z,7.77
2023-03-21T03:44:55.616Z,8.30
2023-03-21T03:48:19.601Z,8.10
2023-03-21T03:51:44.583Z,8.05
2023-03-21T03:55:08.698Z,9.60
2023-03-21T03:58:24.038Z,8.80
2023-03-21T04:01:47.693Z,8.43
2023-03-21T04:05:12.701Z,8.45
2023-03-21T04:08:36.702Z,9.00
2023-03-21T04:12:01.697Z,9.13
2023-03-21T04:15:13.752Z,9.17
2023-03-21T04:18:39.679Z,8.45
2023-03-21T04:21:51.750Z,8.90
2023-03-21T04:25:04.947Z,8.80
2023-03-21T04:28:17.767Z,9.83
2023-03-21T04:31:41.835Z,9.23
2023-03-21T04:35:07.747Z,9.75
2023-03-21T04:38:20.760Z,10.97
2023-03-21T04:41:32.812Z,9.73
2023-03-21T04:44:47.740Z,10.43
2023-03-21T04:48:11.971Z,10.97
2023-03-21T04:51:38.838Z,10.27
2023-03-21T04:54:50.887Z,8.55
2023-03-21T04:58:02.779Z,9.20
2023-03-21T05:01:02.855Z,9.10
2023-03-21T05:04:26.907Z,8.53
2023-03-21T05:07:52.851Z,10.70
2023-03-21T05:11:05.896Z,8.90
2023-03-21T05:14:29.869Z,9.80
2023-03-21T05:17:41.869Z,8.25
2023-03-21T05:20:50.833Z,9.60
2023-03-21T05:24:17.899Z,8.93
2023-03-21T05:27:47.970Z,10.00
2023-03-21T05:31:01.048Z,10.40
2023-03-21T05:34:15.516Z,9.00
2023-03-21T05:40:47.947Z,11.35
2023-03-21T05:44:12.001Z,10.00
2023-03-21T05:47:24.037Z,8.37
2023-03-21T05:50:36.925Z,8.35
2023-03-21T05:53:49.031Z,8.67
2023-03-21T05:57:16.031Z,8.63
2023-03-21T06:00:40.978Z,9.20
2023-03-21T06:03:54.068Z,9.05
2023-03-21T06:07:07.038Z,8.60
2023-03-21T06:10:20.073Z,8.87
2023-03-21T06:13:46.091Z,8.70
2023-03-21T06:17:11.141Z,7.63
2023-03-21T06:20:37.021Z,7.95
2023-03-21T06:23:51.129Z,8.33
2023-03-21T06:26:51.068Z,7.67
2023-03-21T06:30:19.046Z,7.90
2023-03-21T06:33:31.111Z,8.45
2023-03-21T06:36:43.178Z,8.20
2023-03-21T06:39:55.657Z,7.93
2023-03-21T06:43:07.214Z,8.47
2023-03-21T06:46:33.220Z,7.97
2023-03-21T06:49:58.211Z,7.97
2023-03-21T06:53:12.257Z,7.30
2023-03-21T06:56:40.188Z,7.67
2023-03-21T06:59:53.147Z,8.55
2023-03-21T07:03:20.207Z,7.77
2023-03-21T07:06:44.288Z,6.73
2023-03-21T07:09:56.275Z,7.00
2023-03-21T07:13:27.179Z,8.37
2023-03-21T07:16:52.282Z,8.17
2023-03-21T07:20:06.315Z,7.30
2023-03-21T07:23:25.258Z,7.20
2023-03-21T07:26:37.305Z,7.33
2023-03-21T07:29:50.262Z,7.40
2023-03-21T07:33:05.323Z,6.80
2023-03-21T07:36:31.294Z,7.13
2023-03-21T07:39:43.294Z,6.70
2023-03-21T07:43:09.352Z,7.00
2023-03-21T07:46:21.346Z,6.70
2023-03-21T07:49:36.342Z,6.23
2023-03-21T07:52:50.296Z,6.30
2023-03-21T07:56:17.340Z,6.40
2023-03-21T07:59:18.394Z,6.80
2023-03-21T08:02:43.550Z,6.03
2023-03-21T08:06:24.398Z,6.30
2023-03-21T08:09:42.434Z,5.95
2023-03-21T08:12:54.450Z,5.87
2023-03-21T08:15:55.432Z,6.17
2023-03-21T08:19:07.526Z,6.30
2023-03-21T08:22:15.642Z,5.97
2023-03-21T08:25:45.403Z,5.93
2023-03-21T08:29:03.462Z,6.07
2023-03-21T08:32:16.505Z,5.60
2023-03-21T08:35:28.585Z,5.80
2023-03-21T08:38:52.534Z,5.55
2023-03-21T08:42:06.558Z,5.87
2023-03-21T08:45:31.501Z,6.50
2023-03-21T08:48:43.602Z,5.43
2023-03-21T08:51:55.555Z,4.87
2023-03-21T08:54:55.640Z,5.63
2023-03-21T08:58:22.506Z,5.40
2023-03-21T09:01:34.599Z,5.60
2023-03-21T09:04:47.633Z,5.50
2023-03-21T09:07:59.603Z,5.97
2023-03-21T09:11:11.615Z,5.55
2023-03-21T09:14:28.738Z,5.15
2023-03-21T09:17:49.602Z,6.00
2023-03-21T09:20:49.614Z,5.30
2023-03-21T09:24:13.561Z,5.93
2023-03-21T09:27:13.652Z,5.60
2023-03-21T09:30:39.667Z,6.23
2023-03-21T09:33:39.690Z,5.45
2023-03-21T09:36:51.694Z,5.57
2023-03-21T09:40:03.754Z,5.70
2023-03-21T09:43:27.679Z,5.35
2023-03-21T09:46:42.952Z,5.60
2023-03-21T09:50:14.505Z,5.35
2023-03-21T09:53:19.717Z,5.40
2023-03-21T09:56:38.728Z,5.73
2023-03-21T09:59:50.791Z,5.63
2023-03-21T10:03:14.779Z,5.35
2023-03-21T10:06:41.816Z,5.47
2023-03-21T10:09:53.762Z,6.07
2023-03-21T10:13:17.812Z,5.17
2023-03-21T10:16:31.813Z,5.77
2023-03-21T10:19:57.785Z,5.37
2023-03-21T10:23:13.801Z,5.80
2023-03-21T10:26:39.793Z,6.17
2023-03-21T10:29:51.804Z,6.03
2023-03-21T10:33:17.873Z,5.70
2023-03-21T10:36:34.812Z,5.57
2023-03-21T10:39:58.873Z,5.50
2023-03-21T10:42:58.834Z,5.57
2023-03-21T10:46:10.944Z,5.57
2023-03-21T10:49:11.982Z,6.17
2023-03-21T10:52:37.894Z,5.45
2023-03-21T10:55:49.939Z,5.10
2023-03-21T10:59:13.928Z,5.87
2023-03-21T11:02:26.030Z,4.90
2023-03-21T11:05:50.005Z,5.65
2023-03-21T11:09:03.953Z,5.40
2023-03-21T11:12:36.952Z,5.77
2023-03-21T11:15:52.960Z,6.17
2023-03-21T11:19:16.946Z,5.55
2023-03-21T11:22:29.090Z,5.40
2023-03-21T11:25:57.062Z,5.73
2023-03-21T11:29:09.106Z,4.40
2023-03-21T11:32:41.058Z,5.45
2023-03-21T11:35:53.097Z,5.00
2023-03-21T11:39:18.110Z,4.63
2023-03-21T11:42:32.093Z,3.95
2023-03-21T11:45:57.080Z,5.10
2023-03-21T11:49:15.126Z,5.00
2023-03-21T11:52:41.151Z,4.87
2023-03-21T11:55:56.132Z,5.20
2023-03-21T11:59:25.165Z,4.67
2023-03-21T12:02:41.142Z,4.00
2023-03-21T12:06:06.090Z,4.50
2023-03-21T12:09:19.211Z,4.30
2023-03-21T12:12:52.153Z,4.60
2023-03-21T12:16:10.173Z,3.90
2023-03-21T12:19:40.221Z,4.00
2023-03-21T12:25:56.227Z,4.95
2023-03-21T12:29:10.247Z,3.95
2023-03-21T12:32:37.298Z,4.27
2023-03-21T12:35:54.278Z,4.33
2023-03-21T12:39:19.351Z,4.17
2023-03-21T12:42:54.244Z,4.23
2023-03-21T12:46:19.465Z,3.70
2023-03-21T12:49:40.313Z,4.07
2023-03-21T12:53:04.253Z,4.00
2023-03-21T12:56:16.319Z,4.20
2023-03-21T12:59:43.271Z,3.90
2023-03-21T13:02:55.355Z,3.83
2023-03-21T13:06:22.316Z,3.50
2023-03-21T13:09:38.014Z,3.47
2023-03-21T13:13:02.346Z,3.80
2023-03-21T13:16:16.395Z,3.60
2023-03-21T13:19:41.332Z,3.83
2023-03-21T13:22:59.511Z,4.33
2023-03-21T13:26:22.402Z,4.03
2023-03-21T13:29:37.402Z,3.77
2023-03-21T13:33:03.421Z,4.20
2023-03-21T13:36:19.376Z,4.17
2023-03-21T13:39:45.540Z,3.70
2023-03-21T13:42:57.370Z,4.20
2023-03-21T13:46:21.548Z,3.87
2023-03-21T13:49:39.493Z,3.77
2023-03-21T13:52:51.565Z,4.73
2023-03-21T13:56:12.508Z,4.33
2023-03-21T13:59:36.476Z,4.37
2023-03-21T14:02:49.479Z,4.20
2023-03-21T14:06:14.620Z,3.70
2023-03-21T14:09:26.541Z,3.70
2023-03-21T14:12:52.510Z,3.55
2023-03-21T14:16:06.619Z,3.70
2023-03-21T14:19:28.600Z,3.80
2023-03-21T14:22:28.653Z,3.70
2023-03-21T14:25:56.621Z,3.50
2023-03-21T14:29:25.095Z,3.50
2023-03-21T14:32:40.630Z,3.40
2023-03-21T14:35:53.593Z,3.10
2023-03-21T14:39:21.656Z,3.83
2023-03-21T14:42:33.621Z,3.57
2023-03-21T14:45:59.856Z,3.27
2023-03-21T14:48:59.625Z,3.43
2023-03-21T14:52:23.664Z,3.60
2023-03-21T14:55:36.795Z,4.23
2023-03-21T14:59:02.667Z,3.80
2023-03-21T15:02:05.687Z,4.00
2023-03-21T15:05:30.741Z,3.60
2023-03-21T15:08:42.733Z,3.60
2023-03-21T15:11:54.754Z,4.35
2023-03-21T15:14:54.752Z,3.97
2023-03-21T15:18:21.722Z,4.10
2023-03-21T15:21:33.754Z,3.37
2023-03-21T15:25:01.862Z,4.20
2023-03-21T15:28:13.800Z,4.43
2023-03-21T15:31:39.783Z,3.70
2023-03-21T15:34:52.783Z,3.50
2023-03-21T15:38:17.792Z,4.20
2023-03-21T15:41:39.877Z,3.70
2023-03-21T15:45:04.855Z,3.73
2023-03-21T15:48:17.858Z,4.10
2023-03-21T15:51:43.892Z,3.85
2023-03-21T15:54:58.837Z,4.00
2023-03-21T15:58:23.825Z,3.60
2023-03-21T16:01:35.963Z,3.60
2023-03-21T16:05:03.904Z,3.00
2023-03-21T16:08:18.874Z,4.23
2023-03-21T16:11:42.913Z,3.40
2023-03-21T16:14:42.854Z,4.20
2023-03-21T16:18:08.085Z,3.45
2023-03-21T16:21:06.891Z,4.00
2023-03-21T16:24:32.975Z,3.83
2023-03-21T16:27:45.059Z,4.35
2023-03-21T16:31:10.142Z,3.90
2023-03-21T16:34:21.952Z,3.55
2023-03-21T16:37:35.073Z,4.07
2023-03-21T16:40:48.922Z,4.00
2023-03-21T16:44:13.054Z,4.23
2023-03-21T16:47:12.964Z,3.45
2023-03-21T16:50:43.991Z,3.93
2023-03-21T16:53:44.032Z,3.70
2023-03-21T16:57:17.106Z,3.77
2023-03-21T17:00:33.046Z,3.97
2023-03-21T17:03:50.092Z,3.90
2023-03-21T17:07:02.074Z,4.00
2023-03-21T17:10:15.149Z,3.50
2023-03-21T17:13:29.102Z,3.20
2023-03-21T17:16:53.240Z,3.50
2023-03-21T17:20:05.073Z,3.60
2023-03-21T17:23:27.088Z,4.40
2023-03-21T17:26:39.126Z,3.95
2023-03-21T17:30:06.213Z,3.65
2023-03-21T17:33:18.208Z,4.40
2023-03-21T17:36:43.180Z,4.33
2023-03-21T17:42:47.194Z,3.73
2023-03-21T17:46:08.262Z,3.90
2023-03-21T17:49:35.231Z,3.70
2023-03-21T17:52:35.227Z,4.17
2023-03-21T17:55:54.210Z,3.93
2023-03-21T18:02:19.237Z,4.23
2023-03-21T18:05:43.254Z,4.43
2023-03-21T18:08:43.216Z,3.75
2023-03-21T18:11:55.261Z,4.87
2023-03-21T18:14:55.289Z,4.33
2023-03-21T18:18:22.413Z,4.10
2023-03-21T18:21:22.755Z,3.67
2023-03-21T18:24:35.278Z,4.37
2023-03-21T18:27:41.079Z,3.73
2023-03-21T18:31:05.413Z,3.60
2023-03-21T18:34:02.367Z,4.77
2023-03-21T18:37:27.387Z,4.70
2023-03-21T18:40:27.567Z,3.87
2023-03-21T18:44:01.552Z,3.50
2023-03-21T18:46:40.512Z,3.70
2023-03-21T18:50:14.239Z,4.85
2023-03-21T18:53:21.385Z,4.70
2023-03-21T18:57:31.881Z,4.60
2023-03-21T18:59:39.587Z,5.03
2023-03-21T19:03:03.989Z,3.80
2023-03-21T19:06:11.536Z,4.53
2023-03-21T19:15:43.499Z,4.10
2023-03-21T19:18:57.251Z,4.60
2023-03-21T19:22:10.522Z,4.27
2023-03-21T19:25:35.509Z,4.13
2023-03-21T19:28:35.529Z,4.40
2023-03-21T19:31:47.600Z,4.00
2023-03-21T19:34:47.555Z,3.95
2023-03-21T19:38:13.556Z,5.60
2023-03-21T19:41:25.515Z,4.30
2023-03-21T19:44:37.537Z,4.30
2023-03-21T19:47:37.620Z,5.50
2023-03-21T19:51:20.488Z,5.35
2023-03-21T19:54:15.627Z,5.00
2023-03-21T19:57:39.674Z,6.00
2023-03-21T20:00:39.982Z,5.70
2023-03-21T20:04:07.654Z,4.80
2023-03-21T20:10:23.669Z,5.33
2023-03-21T20:16:24.806Z,6.10
2023-03-21T20:19:40.615Z,4.93
2023-03-21T20:26:07.607Z,5.07
2023-03-21T20:29:51.839Z,4.80
2023-03-21T20:32:20.719Z,5.05
2023-03-21T20:36:28.575Z,5.80
2023-03-21T20:38:52.736Z,5.60
2023-03-21T20:42:07.779Z,6.65
2023-03-21T20:45:32.753Z,5.30
2023-03-21T20:48:43.784Z,4.90
2023-03-21T20:55:08.769Z,5.20
2023-03-21T20:58:59.450Z,5.30
2023-03-21T21:01:35.880Z,4.90
2023-03-21T21:05:17.599Z,5.33
2023-03-21T21:07:48.773Z,5.10
2023-03-21T21:11:53.492Z,4.80
2023-03-21T21:14:15.859Z,4.97
2023-03-21T21:18:04.044Z,4.40
2023-03-21T21:20:41.118Z,4.80
2023-03-21T21:24:07.341Z,4.90
2023-03-21T21:27:04.894Z,4.80
2023-03-21T21:30:30.897Z,4.70
2023-03-21T21:33:30.857Z,4.20
2023-03-21T21:36:42.949Z,4.70
2023-03-21T21:39:43.892Z,4.60
2023-03-21T21:43:07.897Z,4.83
2023-03-21T21:46:21.993Z,4.53
2023-03-21T21:49:35.000Z,4.50
2023-03-21T21:52:34.965Z,4.50
2023-03-21T21:56:06.009Z,5.20
2023-03-21T21:59:17.952Z,4.47
2023-03-21T22:02:44.059Z,4.90
2023-03-21T22:05:58.013Z,4.27
2023-03-21T22:09:00.075Z,4.35
2023-03-21T22:12:12.024Z,4.50
2023-03-21T22:15:12.079Z,4.30
2023-03-21T22:18:39.074Z,4.50
2023-03-21T22:21:39.025Z,4.57
2023-03-21T22:24:52.044Z,4.40
2023-03-21T22:27:52.130Z,4.70
2023-03-21T22:31:16.204Z,3.93
2023-03-21T22:34:30.103Z,4.67
2023-03-21T22:37:55.134Z,4.20
2023-03-21T22:40:55.105Z,4.27
2023-03-21T22:44:07.137Z,5.03
2023-03-21T22:50:37.647Z,4.27
2023-03-21T22:56:55.201Z,4.20
2023-03-21T23:00:07.248Z,4.43
2023-03-21T23:03:07.262Z,4.97
2023-03-21T23:06:34.221Z,4.07
2023-03-21T23:09:34.222Z,5.40
2023-03-21T23:12:53.162Z,4.80
2023-03-21T23:15:53.215Z,4.40
2023-03-21T23:19:09.265Z,4.70
2023-03-21T23:22:23.253Z,4.67
2023-03-21T23:25:35.293Z,5.25
2023-03-21T23:28:47.253Z,4.65
2023-03-21T23:32:00.325Z,5.00
2023-03-21T23:35:00.306Z,5.30
2023-03-21T23:38:27.333Z,4.77
2023-03-21T23:41:39.338Z,4.53
2023-03-21T23:44:51.348Z,5.33
2023-03-21T23:48:03.482Z,4.93
2023-03-21T23:51:17.337Z,5.67
2023-03-21T23:54:31.299Z,4.70
2023-03-21T23:57:55.409Z,5.00
